Time;durP1;ratioP1;P1;durP2;ratioP2;P2;SDS_P1;SDS_P2;PMS_P1;PMS_P2;Temp;Humidity;BMP_temperature;BMP_pressure;BME280_temperature;BME280_humidity;BME280_pressure;Samples;Min_cycle;Max_cycle;Signal;HPM_P1;HPM_P2
2021/07/17 00:01:34;;;;;;;47.83;19.43;;;20.60;97.30;;;;;;4956953;28;20211;-83
2021/07/17 00:04:00;;;;;;;41.00;18.20;;;20.50;97.30;;;;;;4957370;28;20431;-84
2021/07/17 00:06:26;;;;;;;37.43;17.20;;;20.50;97.30;;;;;;4957176;28;20442;-84
2021/07/17 00:08:51;;;;;;;34.50;17.23;;;20.50;97.30;;;;;;4957410;28;20203;-83
2021/07/17 00:11:18;;;;;;;41.17;18.40;;;20.50;97.30;;;;;;4956782;28;20199;-84
2021/07/17 00:13:43;;;;;;;36.27;19.40;;;20.40;97.30;;;;;;4955847;28;20207;-86
2021/07/17 00:16:09;;;;;;;40.90;16.50;;;20.50;97.30;;;;;;4956088;28;20462;-84
2021/07/17 00:18:34;;;;;;;47.07;18.10;;;20.40;97.30;;;;;;4956198;28;20900;-85
2021/07/17 00:21:00;;;;;;;41.63;17.57;;;20.40;97.30;;;;;;4958512;29;20213;-84
2021/07/17 00:23:25;;;;;;;31.80;18.13;;;20.40;97.30;;;;;;4954636;28;20222;-84
2021/07/17 00:25:53;;;;;;;51.07;19.70;;;20.40;97.30;;;;;;4953897;28;20187;-86
2021/07/17 00:28:19;;;;;;;39.90;19.53;;;20.40;97.30;;;;;;4954358;28;20618;-85
2021/07/17 00:30:46;;;;;;;44.93;17.80;;;20.40;97.30;;;;;;4954467;29;20796;-85
2021/07/17 00:33:11;;;;;;;48.00;18.93;;;20.30;97.30;;;;;;4955939;28;20921;-85
2021/07/17 00:35:37;;;;;;;44.77;19.60;;;20.30;97.30;;;;;;4954657;28;20518;-87
2021/07/17 00:38:02;;;;;;;40.40;17.43;;;20.30;97.30;;;;;;4956297;28;20182;-83
2021/07/17 00:40:28;;;;;;;34.93;18.77;;;20.20;97.30;;;;;;4954479;28;20658;-85
2021/07/17 00:42:53;;;;;;;46.60;18.67;;;20.30;97.30;;;;;;4954823;28;20257;-86
2021/07/17 00:45:20;;;;;;;37.23;17.27;;;20.30;97.30;;;;;;4957615;28;20340;-83
2021/07/17 00:47:46;;;;;;;39.90;18.50;;;20.30;97.30;;;;;;4954605;28;20230;-84
2021/07/17 00:50:14;;;;;;;48.83;18.73;;;20.30;97.30;;;;;;4957252;29;20439;-83
2021/07/17 00:52:40;;;;;;;49.97;19.27;;;20.20;97.30;;;;;;4957323;28;20287;-83
2021/07/17 00:55:07;;;;;;;40.80;18.63;;;20.20;97.30;;;;;;4957917;28;20451;-84
2021/07/17 00:57:34;;;;;;;40.30;18.87;;;20.20;97.30;;;;;;4957810;28;20190;-85
2021/07/17 01:00:04;;;;;;;42.57;17.03;;;20.20;97.30;;;;;;4958113;28;20498;-84
2021/07/17 01:02:35;;;;;;;45.20;18.27;;;20.30;97.30;;;;;;4963123;28;20591;-84
2021/07/17 01:05:00;;;;;;;40.37;17.60;;;20.30;97.30;;;;;;4956424;28;20439;-84
2021/07/17 01:07:26;;;;;;;34.23;17.93;;;20.30;97.30;;;;;;4959143;29;20462;-85
2021/07/17 01:09:53;;;;;;;39.23;18.27;;;20.20;97.30;;;;;;4957049;28;20211;-83
2021/07/17 01:12:19;;;;;;;37.80;18.57;;;20.20;97.30;;;;;;4958087;28;20327;-83
2021/07/17 01:14:45;;;;;;;41.80;17.70;;;20.20;97.30;;;;;;4957495;28;20525;-84
2021/07/17 01:17:12;;;;;;;52.10;18.77;;;20.20;97.30;;;;;;4956623;28;20427;-82
2021/07/17 01:19:38;;;;;;;44.60;19.00;;;20.20;97.30;;;;;;4955988;28;21001;-84
2021/07/17 01:22:03;;;;;;;32.00;16.40;;;20.20;97.30;;;;;;4956522;29;20462;-84
2021/07/17 01:24:29;;;;;;;39.10;17.97;;;20.20;97.30;;;;;;4954724;29;20175;-84
2021/07/17 01:26:55;;;;;;;48.53;17.90;;;20.20;97.30;;;;;;4954749;29;20179;-83
2021/07/17 01:29:21;;;;;;;41.60;16.60;;;20.20;97.30;;;;;;4954510;29;20469;-85
2021/07/17 01:31:47;;;;;;;37.70;18.40;;;20.20;97.30;;;;;;4955615;28;20187;-83
2021/07/17 01:34:12;;;;;;;40.90;17.60;;;20.10;97.30;;;;;;4954363;29;20426;-84
2021/07/17 01:36:38;;;;;;;33.13;16.70;;;20.10;97.30;;;;;;4953970;28;20189;-84
2021/07/17 01:39:05;;;;;;;37.80;17.30;;;20.10;97.30;;;;;;4954864;28;20202;-84
2021/07/17 01:41:30;;;;;;;42.63;17.47;;;20.10;97.30;;;;;;4954175;28;20203;-83
2021/07/17 01:43:57;;;;;;;43.63;16.83;;;20.10;97.30;;;;;;4954649;28;20430;-83
2021/07/17 01:46:23;;;;;;;40.90;18.70;;;20.10;97.30;;;;;;4954862;28;20183;-84
2021/07/17 01:48:53;;;;;;;46.63;16.90;;;20.10;97.30;;;;;;4954748;28;21207;-84
2021/07/17 01:51:20;;;;;;;46.23;18.60;;;20.10;97.30;;;;;;4956088;28;20492;-84
2021/07/17 01:53:46;;;;;;;44.93;17.73;;;20.10;97.30;;;;;;4954502;28;20510;-84
2021/07/17 01:56:11;;;;;;;45.37;17.30;;;20.10;97.30;;;;;;4956209;29;20419;-83
2021/07/17 01:58:37;;;;;;;29.83;16.77;;;20.10;97.30;;;;;;4957094;28;20469;-84
2021/07/17 02:01:02;;;;;;;31.80;17.17;;;20.10;97.30;;;;;;5039799;23;20342;-84
2021/07/17 02:03:28;;;;;;;40.90;16.93;;;20.10;97.30;;;;;;4953623;29;20183;-83
2021/07/17 02:05:54;;;;;;;47.93;16.83;;;20.20;97.30;;;;;;4953423;29;20187;-84
2021/07/17 02:08:19;;;;;;;37.20;17.07;;;20.10;97.30;;;;;;4953063;29;20190;-85
2021/07/17 02:10:45;;;;;;;31.40;14.70;;;20.10;97.30;;;;;;4953038;29;20298;-85
2021/07/17 02:13:13;;;;;;;44.43;17.10;;;20.10;97.30;;;;;;4954349;29;20690;-85
2021/07/17 02:15:52;;;;;;;40.53;17.43;;;20.10;97.30;;;;;;4952653;29;20282;-85
2021/07/17 02:18:32;;;;;;;34.77;16.20;;;20.10;97.30;;;;;;4953578;29;20783;-85
2021/07/17 02:21:00;;;;;;;39.30;16.00;;;20.00;97.30;;;;;;4952896;29;20454;-84
2021/07/17 02:23:26;;;;;;;35.10;17.20;;;20.00;97.30;;;;;;4952561;29;21002;-83
2021/07/17 02:25:52;;;;;;;35.23;17.33;;;19.90;97.30;;;;;;4953112;29;21019;-83
2021/07/17 02:28:18;;;;;;;39.73;17.93;;;19.90;97.30;;;;;;4952617;29;20931;-83
2021/07/17 02:30:44;;;;;;;37.50;17.57;;;19.80;97.30;;;;;;4952150;29;20461;-83
2021/07/17 02:33:10;;;;;;;33.17;17.47;;;19.80;97.30;;;;;;4952477;28;20184;-83
2021/07/17 02:35:36;;;;;;;38.63;18.27;;;19.80;97.30;;;;;;4953073;29;20537;-83
2021/07/17 02:38:03;;;;;;;41.47;18.10;;;19.80;97.30;;;;;;4952275;28;20446;-84
2021/07/17 02:40:29;;;;;;;47.27;18.93;;;19.70;97.30;;;;;;4952754;29;20590;-84
2021/07/17 02:42:54;;;;;;;45.97;18.30;;;19.60;97.30;;;;;;4952319;29;20508;-84
2021/07/17 02:45:20;;;;;;;46.20;18.93;;;19.60;97.30;;;;;;4952666;29;20210;-84
2021/07/17 02:47:46;;;;;;;44.80;17.57;;;19.60;97.30;;;;;;4952812;28;20190;-84
2021/07/17 02:50:12;;;;;;;38.47;17.83;;;19.50;97.30;;;;;;4952903;28;20171;-85
2021/07/17 02:52:37;;;;;;;41.27;17.53;;;19.40;97.30;;;;;;4953773;28;20624;-84
2021/07/17 02:55:04;;;;;;;42.03;17.40;;;19.40;97.30;;;;;;4949654;28;20432;-85
2021/07/17 02:57:30;;;;;;;46.60;18.90;;;19.30;97.30;;;;;;4933307;28;20579;-84
2021/07/17 02:59:55;;;;;;;40.00;19.03;;;19.20;97.30;;;;;;4939863;28;20469;-84
2021/07/17 03:02:22;;;;;;;51.57;19.17;;;19.20;97.30;;;;;;4951756;28;20266;-84
2021/07/17 03:04:47;;;;;;;38.53;17.53;;;19.20;97.30;;;;;;4952257;29;20574;-84
2021/07/17 03:07:13;;;;;;;39.27;18.00;;;19.10;97.30;;;;;;4952120;29;20429;-84
2021/07/17 03:09:39;;;;;;;46.33;18.43;;;19.10;97.30;;;;;;4951644;29;20662;-84
2021/07/17 03:12:06;;;;;;;42.90;19.20;;;19.10;97.30;;;;;;4951815;29;20457;-84
2021/07/17 03:14:32;;;;;;;43.20;18.13;;;19.10;97.30;;;;;;4951953;29;20525;-84
2021/07/17 03:16:58;;;;;;;44.80;17.90;;;19.00;97.30;;;;;;4951999;29;20427;-84
2021/07/17 03:19:23;;;;;;;47.97;20.43;;;19.00;97.30;;;;;;4952478;28;20418;-84
2021/07/17 03:21:49;;;;;;;42.10;18.30;;;19.00;97.30;;;;;;4951705;28;20210;-84
2021/07/17 03:24:14;;;;;;;46.80;17.90;;;18.90;97.30;;;;;;4951886;28;20649;-85
2021/07/17 03:26:40;;;;;;;42.70;16.90;;;19.00;97.30;;;;;;4951901;28;20172;-83
2021/07/17 03:29:05;;;;;;;36.03;18.23;;;19.00;97.30;;;;;;4951731;29;20183;-85
2021/07/17 03:31:32;;;;;;;46.03;16.93;;;18.90;97.30;;;;;;4952392;29;20554;-85
2021/07/17 03:33:58;;;;;;;45.03;17.90;;;18.90;97.30;;;;;;4952166;28;20271;-85
2021/07/17 03:36:24;;;;;;;49.57;17.00;;;18.90;97.30;;;;;;4952234;28;20497;-86
2021/07/17 03:38:50;;;;;;;34.77;15.83;;;18.90;97.30;;;;;;4951861;28;20423;-85
2021/07/17 03:41:17;;;;;;;44.20;19.23;;;18.80;97.30;;;;;;4951831;29;20207;-85
2021/07/17 03:43:43;;;;;;;43.77;16.77;;;18.80;97.30;;;;;;4951868;29;20270;-84
2021/07/17 03:46:08;;;;;;;52.00;17.93;;;18.80;97.30;;;;;;4951996;29;20454;-85
2021/07/17 03:48:34;;;;;;;45.33;17.60;;;18.90;97.30;;;;;;4952012;29;20172;-84
2021/07/17 03:50:59;;;;;;;40.60;17.10;;;18.80;97.30;;;;;;4951622;29;20786;-83
2021/07/17 03:53:25;;;;;;;43.97;16.90;;;18.90;97.30;;;;;;4951269;29;20194;-84
2021/07/17 03:55:50;;;;;;;41.70;16.63;;;18.80;97.30;;;;;;4942470;29;20176;-84
2021/07/17 03:58:16;;;;;;;44.20;18.40;;;18.80;97.30;;;;;;4934123;28;20279;-84
2021/07/17 04:00:41;;;;;;;40.53;17.90;;;18.80;97.30;;;;;;4951226;29;20220;-84
2021/07/17 04:03:07;;;;;;;42.03;19.50;;;18.80;97.30;;;;;;4951645;28;20267;-84
2021/07/17 04:05:33;;;;;;;45.17;19.20;;;18.80;97.30;;;;;;4952932;29;20581;-86
2021/07/17 04:07:58;;;;;;;54.43;19.30;;;18.70;97.30;;;;;;4951492;29;20588;-87
2021/07/17 04:10:24;;;;;;;39.70;19.30;;;18.70;97.30;;;;;;4951524;29;20294;-86
2021/07/17 04:12:49;;;;;;;46.67;19.23;;;18.70;97.30;;;;;;4951132;29;20274;-87
2021/07/17 04:15:15;;;;;;;53.90;19.60;;;18.60;97.30;;;;;;4951837;29;20175;-87
2021/07/17 04:17:41;;;;;;;41.23;19.37;;;18.60;97.30;;;;;;4951434;29;20194;-86
2021/07/17 04:20:08;;;;;;;41.93;18.87;;;18.60;97.30;;;;;;4951211;28;20661;-86
2021/07/17 04:22:35;;;;;;;54.33;19.97;;;18.60;97.30;;;;;;4949961;29;20215;-87
2021/07/17 04:25:02;;;;;;;44.33;19.70;;;18.60;97.30;;;;;;4951062;29;20415;-85
2021/07/17 04:27:28;;;;;;;43.00;19.17;;;18.60;97.30;;;;;;4950894;29;20427;-84
2021/07/17 04:29:53;;;;;;;48.73;20.93;;;18.60;97.30;;;;;;4950892;29;20423;-84
2021/07/17 04:32:19;;;;;;;50.03;23.43;;;18.70;97.30;;;;;;4950965;29;20239;-84
2021/07/17 04:34:44;;;;;;;46.30;21.10;;;18.70;97.30;;;;;;4950916;29;20202;-84
2021/07/17 04:37:18;;;;;;;49.10;22.27;;;18.70;97.30;;;;;;4951258;29;20202;-83
2021/07/17 04:39:44;;;;;;;45.33;22.20;;;18.70;97.30;;;;;;4951140;29;20183;-84
2021/07/17 04:42:10;;;;;;;53.97;23.63;;;18.60;97.30;;;;;;4951750;29;20528;-85
2021/07/17 04:44:36;;;;;;;53.50;24.70;;;18.60;97.30;;;;;;4945691;29;20431;-85
2021/07/17 04:47:03;;;;;;;50.30;24.10;;;18.70;97.30;;;;;;4941206;28;20239;-85
2021/07/17 04:49:28;;;;;;;59.77;24.70;;;18.70;97.30;;;;;;4936853;28;20799;-85
2021/07/17 04:51:54;;;;;;;68.70;24.17;;;18.70;97.30;;;;;;4935034;29;20451;-86
2021/07/17 04:54:20;;;;;;;56.93;25.83;;;18.60;97.30;;;;;;4933520;29;20180;-85
2021/07/17 04:56:45;;;;;;;70.33;25.87;;;18.70;97.30;;;;;;4933351;28;20180;-85
2021/07/17 04:59:11;;;;;;;55.83;25.50;;;18.70;97.30;;;;;;4933150;28;20179;-84
2021/07/17 05:01:36;;;;;;;59.70;24.47;;;18.70;97.30;;;;;;4932904;28;20228;-84
2021/07/17 05:04:02;;;;;;;68.87;27.03;;;18.70;97.30;;;;;;4949292;28;20187;-85
2021/07/17 05:06:28;;;;;;;64.53;28.07;;;18.70;97.30;;;;;;4946527;29;20565;-84
2021/07/17 05:08:53;;;;;;;65.20;26.57;;;18.70;97.30;;;;;;4952216;29;20194;-85
2021/07/17 05:11:19;;;;;;;57.90;27.60;;;18.70;97.30;;;;;;4951560;29;20215;-84
2021/07/17 05:13:45;;;;;;;58.90;28.00;;;18.70;97.30;;;;;;4946635;29;20550;-85
2021/07/17 05:16:10;;;;;;;52.03;26.57;;;18.80;97.30;;;;;;4941808;28;20218;-85
2021/07/17 05:18:36;;;;;;;63.80;28.53;;;18.80;97.30;;;;;;4942856;29;20671;-85
2021/07/17 05:21:01;;;;;;;59.03;28.00;;;18.80;97.30;;;;;;4949227;28;20221;-86
2021/07/17 05:23:27;;;;;;;60.80;28.27;;;18.80;97.30;;;;;;4933526;29;20226;-86
2021/07/17 05:25:53;;;;;;;59.93;28.13;;;18.70;97.30;;;;;;4936757;28;20180;-86
2021/07/17 05:28:21;;;;;;;59.83;28.37;;;18.70;97.30;;;;;;4937156;29;20180;-85
2021/07/17 05:30:46;;;;;;;54.70;28.20;;;18.70;97.30;;;;;;4981158;28;20203;-85
2021/07/17 05:33:12;;;;;;;53.00;27.80;;;18.60;97.30;;;;;;5024579;28;20414;-86
2021/07/17 05:35:38;;;;;;;57.50;27.17;;;18.70;97.30;;;;;;4942545;28;20186;-86
2021/07/17 05:38:03;;;;;;;57.23;27.50;;;18.70;97.30;;;;;;4952233;28;20243;-85
2021/07/17 05:40:29;;;;;;;53.77;27.90;;;18.70;97.30;;;;;;4943384;29;20271;-86
2021/07/17 05:42:56;;;;;;;51.77;27.43;;;18.70;97.30;;;;;;4933006;29;20228;-86
2021/07/17 05:45:22;;;;;;;58.13;28.03;;;18.60;97.30;;;;;;4938370;29;20419;-86
2021/07/17 05:47:47;;;;;;;60.40;28.57;;;18.60;97.30;;;;;;4938875;28;20175;-86
2021/07/17 05:50:13;;;;;;;66.67;31.10;;;18.60;97.30;;;;;;4936826;29;20462;-85
2021/07/17 05:52:39;;;;;;;61.57;29.90;;;18.70;97.30;;;;;;4935212;28;20206;-85
2021/07/17 05:55:05;;;;;;;61.63;28.10;;;18.60;97.30;;;;;;4952072;29;20426;-85
2021/07/17 05:57:34;;;;;;;48.90;28.07;;;18.60;97.30;;;;;;4949897;29;20274;-85
2021/07/17 05:59:59;;;;;;;52.43;29.47;;;18.60;97.30;;;;;;4942634;28;20454;-85
2021/07/17 06:02:26;;;;;;;69.87;29.90;;;18.60;97.30;;;;;;4947188;29;20497;-85
2021/07/17 06:04:51;;;;;;;54.87;27.50;;;18.60;97.30;;;;;;4949679;29;20598;-85
2021/07/17 06:07:17;;;;;;;60.50;30.60;;;18.60;97.30;;;;;;4951640;28;20505;-86
2021/07/17 06:09:44;;;;;;;66.17;31.00;;;18.60;97.30;;;;;;4949207;29;20207;-85
2021/07/17 06:12:10;;;;;;;60.80;29.77;;;18.60;97.30;;;;;;4949121;28;20211;-86
2021/07/17 06:14:37;;;;;;;54.73;28.43;;;18.50;97.30;;;;;;4944494;29;20430;-88
2021/07/17 06:17:04;;;;;;;58.07;28.60;;;18.50;97.30;;;;;;4933470;29;20203;-88
2021/07/17 06:19:30;;;;;;;46.90;26.83;;;18.50;97.30;;;;;;4934143;29;20416;-87
2021/07/17 06:21:55;;;;;;;61.33;28.73;;;18.50;97.30;;;;;;4940771;29;20536;-87
2021/07/17 06:24:21;;;;;;;59.23;30.80;;;18.50;97.30;;;;;;4950740;29;20175;-87
2021/07/17 06:26:46;;;;;;;68.00;32.33;;;18.60;97.30;;;;;;4951117;29;20179;-87
2021/07/17 06:29:12;;;;;;;54.97;28.40;;;18.60;97.30;;;;;;4951009;29;20629;-87
2021/07/17 06:31:38;;;;;;;48.97;27.70;;;18.60;97.30;;;;;;4952608;29;20684;-87
2021/07/17 06:34:06;;;;;;;54.23;28.07;;;18.60;97.30;;;;;;4950655;29;20187;-87
2021/07/17 06:36:32;;;;;;;43.63;25.37;;;18.60;97.30;;;;;;4951295;29;20500;-87
2021/07/17 06:38:58;;;;;;;45.00;24.83;;;18.60;97.30;;;;;;4951446;29;20956;-87
2021/07/17 06:41:23;;;;;;;42.70;26.27;;;18.60;97.30;;;;;;4952831;29;20560;-87
2021/07/17 06:43:49;;;;;;;50.20;26.00;;;18.60;97.30;;;;;;4953346;28;20214;-86
2021/07/17 06:46:15;;;;;;;48.97;24.97;;;18.60;97.30;;;;;;4955451;29;20667;-87
2021/07/17 06:48:41;;;;;;;54.10;28.03;;;18.60;97.30;;;;;;4954687;29;20419;-88
2021/07/17 06:51:08;;;;;;;54.93;27.73;;;18.60;97.30;;;;;;4951639;29;20195;-88
2021/07/17 06:53:34;;;;;;;55.40;28.27;;;18.60;97.30;;;;;;4934119;29;20180;-87
2021/07/17 06:56:00;;;;;;;51.83;27.00;;;18.60;97.30;;;;;;4933734;29;20431;-87
2021/07/17 06:58:26;;;;;;;74.93;28.43;;;18.60;97.30;;;;;;4938973;29;20462;-86
2021/07/17 07:00:51;;;;;;;52.73;27.50;;;18.70;97.30;;;;;;4933197;29;20236;-87
2021/07/17 07:03:17;;;;;;;67.27;30.57;;;18.60;97.30;;;;;;4933549;29;20208;-86
2021/07/17 07:05:42;;;;;;;54.97;29.90;;;18.60;97.30;;;;;;4934519;29;20634;-86
2021/07/17 07:08:08;;;;;;;59.73;31.67;;;18.70;97.30;;;;;;4934095;29;20194;-86
2021/07/17 07:10:33;;;;;;;52.80;28.80;;;18.70;97.30;;;;;;4933257;29;20196;-86
2021/07/17 07:13:06;;;;;;;70.77;29.60;;;18.70;97.30;;;;;;4935299;29;20234;-86
2021/07/17 07:15:32;;;;;;;63.67;30.77;;;18.60;97.30;;;;;;4933809;29;20187;-86
2021/07/17 07:17:57;;;;;;;61.40;30.50;;;18.70;97.30;;;;;;4933711;29;20424;-86
2021/07/17 07:20:23;;;;;;;55.73;28.73;;;18.70;97.30;;;;;;4933628;29;20228;-86
2021/07/17 07:22:48;;;;;;;61.03;29.23;;;18.70;97.30;;;;;;4933209;29;20236;-86
2021/07/17 07:25:14;;;;;;;62.67;28.37;;;18.70;97.30;;;;;;4933553;29;20183;-86
2021/07/17 07:27:40;;;;;;;49.90;26.77;;;18.70;97.30;;;;;;4935406;29;20179;-86
2021/07/17 07:30:07;;;;;;;57.30;29.90;;;18.70;97.30;;;;;;4933991;29;20176;-87
2021/07/17 07:32:32;;;;;;;56.17;28.67;;;18.80;97.30;;;;;;4933875;29;20253;-87
2021/07/17 07:34:58;;;;;;;60.13;29.70;;;18.80;97.30;;;;;;4933690;29;20494;-86
2021/07/17 07:37:25;;;;;;;60.30;30.07;;;18.70;97.30;;;;;;4933627;29;20207;-87
2021/07/17 07:39:52;;;;;;;49.20;27.07;;;18.70;97.30;;;;;;4934079;29;20216;-87
2021/07/17 07:42:18;;;;;;;83.17;43.67;;;18.80;97.30;;;;;;4933611;29;20994;-86
2021/07/17 07:44:43;;;;;;;56.83;28.20;;;18.70;97.30;;;;;;4933178;29;20481;-87
2021/07/17 07:47:09;;;;;;;60.40;29.60;;;18.80;97.30;;;;;;4934328;29;20233;-87
2021/07/17 07:49:35;;;;;;;62.57;29.10;;;18.70;97.30;;;;;;4933968;29;20180;-87
2021/07/17 07:52:00;;;;;;;64.47;27.63;;;18.70;97.30;;;;;;4933243;29;20207;-87
2021/07/17 07:54:26;;;;;;;63.63;30.27;;;18.70;97.30;;;;;;4933216;29;20184;-86
2021/07/17 07:56:51;;;;;;;60.33;28.87;;;18.80;97.30;;;;;;4934218;29;20397;-87
2021/07/17 07:59:17;;;;;;;73.90;30.30;;;18.70;97.30;;;;;;4933055;29;20188;-87
2021/07/17 08:01:42;;;;;;;68.37;29.93;;;18.80;97.30;;;;;;4967323;22;20232;-85
2021/07/17 08:04:10;;;;;;;65.57;28.20;;;18.80;97.30;;;;;;5055452;28;20723;-83
2021/07/17 08:06:35;;;;;;;71.63;27.53;;;18.90;97.30;;;;;;5055229;28;20255;-83
2021/07/17 08:09:01;;;;;;;71.03;30.80;;;18.90;97.30;;;;;;5055090;28;20418;-85
2021/07/17 08:11:27;;;;;;;65.67;28.97;;;19.00;97.30;;;;;;5054722;28;20188;-84
2021/07/17 08:13:52;;;;;;;64.30;26.63;;;19.10;97.30;;;;;;5054605;28;20603;-84
2021/07/17 08:16:17;;;;;;;53.93;25.60;;;19.10;97.30;;;;;;5057206;28;20180;-83
2021/07/17 08:18:43;;;;;;;57.20;27.17;;;19.20;97.30;;;;;;5056055;28;20188;-83
2021/07/17 08:21:08;;;;;;;64.90;27.30;;;19.20;97.30;;;;;;5055386;28;20191;-82
2021/07/17 08:23:34;;;;;;;60.73;28.20;;;19.30;97.30;;;;;;5035886;28;20688;-84
2021/07/17 08:26:00;;;;;;;73.30;28.17;;;19.40;97.30;;;;;;5040783;28;20176;-83
2021/07/17 08:28:25;;;;;;;74.37;29.47;;;19.40;97.30;;;;;;5065433;28;20734;-82
2021/07/17 08:30:51;;;;;;;64.93;28.90;;;19.40;97.30;;;;;;5061995;28;20229;-84
2021/07/17 08:33:16;;;;;;;65.93;29.20;;;19.40;97.30;;;;;;5056897;28;20192;-83
2021/07/17 08:35:42;;;;;;;66.37;29.77;;;19.30;97.30;;;;;;5067761;28;20505;-83
2021/07/17 08:38:07;;;;;;;67.40;29.90;;;19.30;97.30;;;;;;5059688;28;20214;-80
2021/07/17 08:40:33;;;;;;;75.40;30.87;;;19.30;97.30;;;;;;5057627;28;20183;-83
2021/07/17 08:42:59;;;;;;;75.33;31.33;;;19.20;97.30;;;;;;5071545;28;20202;-84
2021/07/17 08:45:25;;;;;;;73.67;31.20;;;19.30;97.30;;;;;;5076527;28;20186;-85
2021/07/17 08:47:52;;;;;;;63.80;27.47;;;19.30;97.30;;;;;;5070233;28;20179;-83
2021/07/17 08:50:26;;;;;;;72.80;31.13;;;19.30;97.30;;;;;;5058585;28;20418;-84
2021/07/17 08:52:57;;;;;;;74.87;32.20;;;19.30;97.30;;;;;;5086345;28;20445;-84
2021/07/17 08:55:26;;;;;;;73.33;31.80;;;19.30;97.30;;;;;;5054946;28;20491;-85
2021/07/17 08:57:52;;;;;;;64.47;30.97;;;19.30;97.30;;;;;;5057211;28;20425;-85
2021/07/17 09:00:25;;;;;;;69.43;30.70;;;19.40;97.30;;;;;;5056202;28;20509;-83
2021/07/17 09:02:55;;;;;;;67.10;28.37;;;19.40;97.30;;;;;;5052714;28;20462;-85
2021/07/17 09:05:23;;;;;;;73.23;29.57;;;19.50;97.30;;;;;;5052103;28;20430;-86
2021/07/17 09:07:49;;;;;;;88.40;31.40;;;19.50;97.30;;;;;;5052856;28;20418;-84
2021/07/17 09:10:29;;;;;;;73.13;31.27;;;19.60;97.30;;;;;;5053549;28;20681;-86
2021/07/17 09:13:07;;;;;;;75.87;29.67;;;19.60;97.30;;;;;;5053996;28;20426;-85
2021/07/17 09:15:33;;;;;;;74.60;31.13;;;19.60;97.30;;;;;;5051728;28;20954;-84
2021/07/17 09:17:59;;;;;;;67.80;30.03;;;19.60;97.30;;;;;;5053308;28;20418;-84
2021/07/17 09:20:24;;;;;;;69.67;29.20;;;19.70;97.30;;;;;;5050260;28;20514;-85
2021/07/17 09:23:01;;;;;;;80.03;32.13;;;19.70;97.30;;;;;;5052529;28;20223;-84
2021/07/17 09:25:54;;;;;;;71.93;29.83;;;19.70;97.30;;;;;;5051824;28;20278;-84
2021/07/17 09:28:26;;;;;;;62.27;28.20;;;19.80;97.30;;;;;;5048437;28;21018;-84
2021/07/17 09:30:58;;;;;;;61.37;30.77;;;19.80;97.30;;;;;;5052096;28;20426;-84
2021/07/17 09:33:24;;;;;;;66.13;30.83;;;19.80;97.30;;;;;;5052813;28;20571;-84
2021/07/17 09:35:51;;;;;;;74.30;32.90;;;19.80;97.30;;;;;;5054509;28;20454;-82
2021/07/17 09:38:18;;;;;;;80.90;31.63;;;19.80;97.30;;;;;;5056213;28;20418;-86
2021/07/17 09:40:56;;;;;;;69.07;28.87;;;19.90;97.30;;;;;;5054138;28;20429;-86
2021/07/17 09:43:41;;;;;;;75.50;30.57;;;19.90;97.30;;;;;;5054407;28;21007;-86
2021/07/17 09:46:24;;;;;;;69.40;31.63;;;20.00;97.30;;;;;;5055346;28;20466;-84
2021/07/17 09:48:59;;;;;;;64.43;27.67;;;20.00;97.30;;;;;;5055650;28;20427;-84
2021/07/17 09:51:30;;;;;;;63.07;29.37;;;20.10;97.30;;;;;;5057135;28;20430;-85
2021/07/17 09:54:00;;;;;;;70.17;30.90;;;20.10;97.30;;;;;;5056150;28;20411;-84
2021/07/17 09:56:33;;;;;;;66.17;28.03;;;20.10;97.30;;;;;;5057576;28;20426;-84
2021/07/17 09:59:00;;;;;;;71.93;30.30;;;20.10;97.30;;;;;;5057093;28;20468;-85
2021/07/17 10:01:31;;;;;;;68.90;29.10;;;20.10;97.30;;;;;;5070898;28;20458;-83
2021/07/17 10:04:07;;;;;;;70.10;30.27;;;20.10;97.30;;;;;;5055786;28;20966;-85
2021/07/17 10:06:36;;;;;;;68.27;31.50;;;20.20;97.30;;;;;;5056016;28;20448;-84
2021/07/17 10:09:04;;;;;;;74.17;31.00;;;20.20;97.30;;;;;;5054091;28;20473;-86
2021/07/17 10:11:30;;;;;;;72.07;33.17;;;20.20;97.30;;;;;;5055728;28;20446;-85
2021/07/17 10:13:57;;;;;;;72.17;32.77;;;20.20;97.30;;;;;;5055826;28;20417;-83
2021/07/17 10:16:25;;;;;;;72.73;33.50;;;20.20;97.30;;;;;;5052844;28;20427;-84
2021/07/17 10:18:52;;;;;;;83.97;33.73;;;20.20;97.30;;;;;;5054593;28;20433;-84
2021/07/17 10:21:18;;;;;;;78.27;33.80;;;20.20;97.30;;;;;;5054957;28;20421;-84
2021/07/17 10:23:44;;;;;;;74.37;33.60;;;20.20;97.30;;;;;;5049183;28;20432;-84
2021/07/17 10:26:10;;;;;;;81.30;34.53;;;20.20;97.30;;;;;;5045948;28;20971;-84
2021/07/17 10:28:37;;;;;;;74.13;34.20;;;20.30;97.30;;;;;;5054308;28;20421;-84
2021/07/17 10:31:03;;;;;;;80.20;32.70;;;20.30;97.30;;;;;;5054139;28;20416;-84
2021/07/17 10:33:31;;;;;;;81.93;33.63;;;20.20;97.30;;;;;;5050801;28;20446;-85
2021/07/17 10:36:08;;;;;;;74.23;33.13;;;20.30;97.30;;;;;;5054317;28;20427;-84
2021/07/17 10:38:35;;;;;;;79.43;36.93;;;20.30;97.30;;;;;;5055425;28;20418;-84
2021/07/17 10:41:02;;;;;;;85.93;34.07;;;20.30;97.30;;;;;;5054271;28;20513;-84
2021/07/17 10:43:27;;;;;;;79.50;33.37;;;20.30;97.30;;;;;;5046295;28;20463;-84
2021/07/17 10:45:54;;;;;;;76.97;35.13;;;20.40;97.30;;;;;;5049676;28;20461;-83
2021/07/17 10:48:34;;;;;;;85.67;35.60;;;20.40;97.30;;;;;;5046089;28;20184;-83
2021/07/17 10:51:02;;;;;;;87.23;36.90;;;20.50;97.30;;;;;;5058796;28;20415;-84
2021/07/17 10:53:50;;;;;;;86.17;34.70;;;20.50;97.30;;;;;;5054962;28;20443;-86
2021/07/17 10:56:28;;;;;;;82.80;34.40;;;20.50;97.30;;;;;;5051255;28;20429;-83
2021/07/17 10:59:13;;;;;;;78.47;34.03;;;20.60;97.30;;;;;;5048789;28;20865;-84
2021/07/17 11:02:02;;;;;;;74.10;33.50;;;20.60;97.30;;;;;;5065092;28;20496;-85
2021/07/17 11:04:48;;;;;;;83.60;32.70;;;20.60;97.30;;;;;;5047176;28;20435;-83
2021/07/17 11:07:29;;;;;;;74.73;33.10;;;20.70;97.30;;;;;;5059883;28;20410;-84
2021/07/17 11:10:07;;;;;;;80.33;35.37;;;20.80;97.30;;;;;;5042237;28;20423;-84
2021/07/17 11:12:43;;;;;;;75.10;34.00;;;20.80;97.30;;;;;;5059228;28;20450;-84
2021/07/17 11:15:09;;;;;;;82.90;35.90;;;20.80;97.30;;;;;;5057958;28;20419;-83
2021/07/17 11:17:48;;;;;;;83.97;32.40;;;20.90;97.30;;;;;;5052470;28;20520;-85
2021/07/17 11:20:31;;;;;;;75.77;33.40;;;20.90;97.30;;;;;;5065397;28;20222;-84
2021/07/17 11:23:08;;;;;;;74.13;33.90;;;21.00;97.30;;;;;;5042651;28;20477;-86
2021/07/17 11:25:35;;;;;;;69.80;32.10;;;21.00;97.30;;;;;;5043088;28;20463;-84
2021/07/17 11:28:01;;;;;;;74.80;33.77;;;21.10;97.30;;;;;;5049042;28;20426;-86
2021/07/17 11:30:32;;;;;;;67.03;32.30;;;21.10;97.30;;;;;;5041124;28;20425;-86
2021/07/17 11:33:04;;;;;;;79.17;32.80;;;21.10;97.30;;;;;;5048374;28;20200;-84
2021/07/17 11:35:30;;;;;;;70.97;31.97;;;21.10;97.30;;;;;;5058947;28;20797;-85
2021/07/17 11:37:56;;;;;;;81.03;33.80;;;21.10;97.30;;;;;;5041655;28;20435;-85
2021/07/17 11:40:22;;;;;;;79.80;33.87;;;21.10;97.30;;;;;;5050402;28;20456;-84
2021/07/17 11:42:48;;;;;;;84.40;36.53;;;21.10;97.30;;;;;;5043047;28;20212;-85
2021/07/17 11:45:13;;;;;;;78.27;32.93;;;21.10;97.30;;;;;;5051293;28;20811;-85
2021/07/17 11:47:40;;;;;;;73.83;33.83;;;21.10;97.30;;;;;;5054587;28;20437;-83
2021/07/17 11:50:06;;;;;;;80.27;35.87;;;21.10;97.30;;;;;;5046442;28;20180;-84
2021/07/17 11:52:34;;;;;;;92.27;36.50;;;21.10;97.30;;;;;;5047212;28;20473;-84
2021/07/17 11:55:04;;;;;;;74.10;33.93;;;21.10;97.30;;;;;;5045541;28;20899;-83
2021/07/17 11:57:48;;;;;;;81.07;36.07;;;21.10;97.30;;;;;;5043817;28;20429;-84
2021/07/17 12:00:19;;;;;;;79.43;35.77;;;21.20;97.30;;;;;;5045292;28;20435;-84
2021/07/17 12:02:52;;;;;;;89.30;36.30;;;21.20;97.30;;;;;;5045156;28;20473;-86
2021/07/17 12:05:18;;;;;;;76.03;34.77;;;21.30;97.30;;;;;;5053208;28;20429;-85
2021/07/17 12:07:45;;;;;;;98.73;37.60;;;21.40;97.30;;;;;;5051924;28;20418;-84
2021/07/17 12:10:16;;;;;;;64.40;30.87;;;21.40;97.30;;;;;;5043747;28;20522;-82
2021/07/17 12:12:44;;;;;;;72.27;33.17;;;21.40;97.30;;;;;;5047489;28;20508;-86
2021/07/17 12:15:14;;;;;;;64.63;31.10;;;21.50;97.30;;;;;;5044018;28;20430;-86
2021/07/17 12:17:56;;;;;;;59.97;29.80;;;21.50;97.30;;;;;;5042502;28;20477;-86
2021/07/17 12:20:26;;;;;;;67.73;29.83;;;21.60;97.30;;;;;;5044766;28;20468;-84
2021/07/17 12:23:11;;;;;;;65.00;30.30;;;21.70;97.30;;;;;;5048202;28;20466;-84
2021/07/17 12:25:58;;;;;;;56.53;28.43;;;21.80;97.30;;;;;;5054597;28;20419;-82
2021/07/17 12:28:24;;;;;;;68.43;32.10;;;21.90;97.30;;;;;;5044470;28;20454;-85
2021/07/17 12:30:55;;;;;;;70.23;33.60;;;22.00;97.30;;;;;;5045105;28;20442;-84